Time;durP1;ratioP1;P1;durP2;ratioP2;P2;SDS_P1;SDS_P2;PMS_P1;PMS_P2;Temp;Humidity;BMP_temperature;BMP_pressure;BME280_temperature;BME280_humidity;BME280_pressure;Samples;Min_cycle;Max_cycle;Signal;HPM_P1;HPM_P2
2021/03/08 00:00:04;;;;;;;21.05;11.35;;;2.50;59.60;;;1.16;55.80;98678.38;5103027;28;20413;-80
2021/03/08 00:02:34;;;;;;;20.08;11.80;;;2.50;59.80;;;1.16;55.37;98681.78;5103790;28;20398;-79
2021/03/08 00:05:04;;;;;;;17.97;10.77;;;2.40;59.90;;;1.22;54.71;98690.75;5103333;28;20455;-80
2021/03/08 00:07:30;;;;;;;17.13;10.33;;;2.50;59.20;;;1.29;54.38;98689.13;5103276;28;20451;-80
2021/03/08 00:09:57;;;;;;;17.03;11.00;;;2.60;58.80;;;1.38;54.20;98685.56;5103468;28;20508;-79
2021/03/08 00:12:24;;;;;;;16.20;10.70;;;2.70;59.00;;;1.36;54.49;98686.72;5107743;28;20416;-79
2021/03/08 00:14:50;;;;;;;19.30;11.13;;;2.70;58.70;;;1.45;53.80;98696.19;5104765;28;20406;-79
2021/03/08 00:17:17;;;;;;;17.27;10.98;;;2.70;58.60;;;1.33;54.31;98694.88;5114708;28;20443;-79
2021/03/08 00:19:46;;;;;;;17.50;10.73;;;2.70;58.80;;;1.14;54.73;98690.75;5115724;28;20506;-80
2021/03/08 00:22:13;;;;;;;16.10;10.65;;;2.50;59.00;;;1.27;55.29;98687.69;5117190;28;20402;-79
2021/03/08 00:24:41;;;;;;;18.05;11.52;;;2.50;59.50;;;1.38;54.52;98687.38;5116914;28;20421;-80
2021/03/08 00:27:08;;;;;;;18.42;11.40;;;2.60;59.20;;;1.38;54.34;98689.97;5117806;28;20398;-79
2021/03/08 00:29:34;;;;;;;16.10;10.45;;;2.70;58.80;;;1.34;54.16;98686.88;5118327;28;20444;-80
2021/03/08 00:32:01;;;;;;;21.60;10.98;;;2.60;58.70;;;1.26;54.86;98689.47;5118403;28;20432;-80
2021/03/08 00:34:27;;;;;;;14.48;10.07;;;2.60;58.90;;;1.10;54.68;98689.44;5115916;28;20483;-80
2021/03/08 00:36:56;;;;;;;20.38;10.50;;;2.40;59.00;;;0.95;55.69;98686.63;5111861;28;20437;-81
2021/03/08 00:39:22;;;;;;;18.15;11.05;;;2.30;59.60;;;1.02;55.13;98678.97;5107606;28;20410;-80
2021/03/08 00:41:49;;;;;;;19.17;11.35;;;2.30;59.60;;;1.01;55.30;98679.94;5105256;28;20549;-80
2021/03/08 00:44:16;;;;;;;16.13;10.35;;;2.30;59.50;;;1.03;54.89;98683.22;5103218;28;20421;-80
2021/03/08 00:46:42;;;;;;;18.33;10.88;;;2.30;59.20;;;0.88;55.60;98677.81;5102501;28;20516;-80
2021/03/08 00:49:09;;;;;;;19.30;10.70;;;2.20;59.40;;;0.84;55.29;98673.03;5102412;28;20406;-80
2021/03/08 00:51:35;;;;;;;16.92;11.13;;;2.10;59.40;;;0.95;54.74;98678.81;5103269;28;20695;-79
2021/03/08 00:54:02;;;;;;;18.05;11.45;;;2.20;59.40;;;0.97;54.52;98676.03;5104058;28;20464;-79
2021/03/08 00:56:28;;;;;;;20.63;10.88;;;2.30;59.10;;;1.13;54.66;98676.88;5102892;28;20413;-79
2021/03/08 00:58:54;;;;;;;19.85;11.27;;;2.40;59.00;;;1.13;54.78;98676.88;5102208;28;20522;-79
2021/03/08 01:01:21;;;;;;;17.70;10.95;;;2.40;58.90;;;1.26;54.31;98683.44;5102363;28;20410;-79
2021/03/08 01:03:48;;;;;;;16.25;10.65;;;2.50;59.10;;;1.15;54.75;98671.50;5106740;28;20500;-79
2021/03/08 01:06:15;;;;;;;21.15;11.30;;;2.50;58.80;;;1.12;54.80;98677.88;5103906;28;20714;-81
2021/03/08 01:08:43;;;;;;;18.85;10.63;;;2.40;58.90;;;1.12;54.91;98670.06;5102614;28;20560;-80
2021/03/08 01:11:10;;;;;;;18.33;11.30;;;2.40;59.30;;;1.07;55.29;98674.09;5104234;28;20405;-79
2021/03/08 01:13:36;;;;;;;17.38;11.77;;;2.40;59.60;;;1.12;55.25;98674.47;5103191;28;20512;-80
2021/03/08 01:16:03;;;;;;;17.08;10.40;;;2.40;59.60;;;1.13;55.67;98673.44;5102668;28;20402;-80
2021/03/08 01:18:30;;;;;;;19.45;11.35;;;2.40;59.90;;;1.26;55.49;98663.41;5103032;28;20853;-80
2021/03/08 01:20:56;;;;;;;18.88;12.10;;;2.50;59.70;;;0.93;56.64;98670.31;5103452;28;20413;-81
2021/03/08 01:23:22;;;;;;;17.77;11.35;;;2.40;60.10;;;0.98;56.17;98677.66;5103324;28;20406;-80
2021/03/08 01:25:48;;;;;;;19.98;12.13;;;2.30;60.40;;;0.81;56.50;98666.38;5118353;28;20422;-81
2021/03/08 01:28:15;;;;;;;18.58;11.65;;;2.20;60.70;;;0.68;56.37;98669.41;5102980;28;20394;-80
2021/03/08 01:30:43;;;;;;;19.70;11.43;;;2.00;60.90;;;0.74;56.13;98665.38;5103072;28;20424;-80
2021/03/08 01:33:10;;;;;;;17.20;10.88;;;2.00;60.80;;;0.71;56.33;98658.69;5118047;28;20432;-79
2021/03/08 01:35:39;;;;;;;17.02;10.82;;;2.00;60.40;;;0.57;56.17;98664.50;5102964;28;20421;-81
2021/03/08 01:38:06;;;;;;;18.23;10.43;;;1.90;60.10;;;0.58;56.03;98663.53;5102854;28;20421;-80
2021/03/08 01:40:36;;;;;;;16.80;10.40;;;1.90;60.30;;;0.63;56.05;98647.41;5101477;28;20515;-80
2021/03/08 01:43:04;;;;;;;19.02;11.40;;;2.00;60.20;;;0.52;56.71;98653.72;5102439;28;20412;-81
2021/03/08 01:45:35;;;;;;;18.65;10.77;;;1.90;60.80;;;0.65;56.51;98654.09;5100461;28;20527;-80
2021/03/08 01:48:04;;;;;;;18.13;10.63;;;1.90;61.20;;;0.57;56.41;98653.25;5104417;28;20410;-80
2021/03/08 01:50:34;;;;;;;16.38;10.35;;;1.90;60.60;;;0.60;55.94;98645.91;5102690;28;20688;-80
2021/03/08 01:53:03;;;;;;;16.60;10.57;;;1.90;60.50;;;0.60;56.07;98640.72;5104150;28;20402;-81
2021/03/08 01:55:31;;;;;;;19.30;10.63;;;1.90;60.40;;;0.56;56.36;98651.59;5119753;28;20437;-81
2021/03/08 01:57:57;;;;;;;19.27;10.55;;;1.90;60.30;;;0.67;55.78;98646.94;5103730;28;20513;-80
2021/03/08 02:00:26;;;;;;;15.82;10.45;;;1.90;61.00;;;0.80;56.04;98650.91;5109994;28;20879;-80
2021/03/08 02:02:54;;;;;;;15.87;11.00;;;2.10;60.00;;;0.85;55.59;98652.03;5108847;28;20480;-80
2021/03/08 02:05:27;;;;;;;19.40;11.32;;;2.10;60.20;;;0.76;55.70;98653.81;5103328;28;20406;-80
2021/03/08 02:07:54;;;;;;;19.65;12.35;;;2.10;59.80;;;0.86;54.74;98664.09;5108872;28;20410;-80
2021/03/08 02:10:23;;;;;;;20.13;12.10;;;2.20;59.20;;;0.95;53.97;98657.13;5111643;28;20393;-80
2021/03/08 02:13:25;;;;;;;18.92;12.82;;;2.20;58.60;;;1.10;53.71;98658.97;5109475;28;20826;-79
2021/03/08 02:16:00;;;;;;;20.13;12.82;;;2.30;58.50;;;0.89;54.17;98661.19;5101774;28;20410;-79
2021/03/08 02:18:48;;;;;;;22.10;13.10;;;2.30;58.40;;;0.86;54.64;98658.88;5101804;28;20746;-80
2021/03/08 02:21:58;;;;;;;22.15;12.48;;;2.20;59.00;;;0.64;55.72;98657.69;5101735;28;20665;-81
2021/03/08 02:25:07;;;;;;;25.25;13.88;;;2.00;59.70;;;0.59;56.11;98657.34;5101273;28;20421;-80
2021/03/08 02:28:37;;;;;;;23.10;13.23;;;1.90;60.30;;;0.46;56.44;98648.31;5101551;28;20405;-81
2021/03/08 02:31:07;;;;;;;22.00;12.90;;;1.80;60.30;;;0.45;56.50;98649.31;5099606;28;20422;-81
2021/03/08 02:33:36;;;;;;;22.20;14.02;;;1.70;60.70;;;0.42;56.61;98647.81;5117191;28;20416;-79
2021/03/08 02:36:08;;;;;;;25.47;13.43;;;1.70;61.00;;;0.37;56.73;98647.47;5101593;28;20417;-78
2021/03/08 02:38:43;;;;;;;21.23;12.57;;;1.70;61.00;;;0.30;57.27;98654.28;5106303;28;20793;-78
2021/03/08 02:41:15;;;;;;;22.58;14.13;;;1.60;61.40;;;0.15;57.89;98646.19;5104516;28;20404;-79
2021/03/08 02:43:44;;;;;;;22.80;13.57;;;1.50;62.10;;;0.12;58.26;98649.13;5105195;28;20410;-79
2021/03/08 02:46:17;;;;;;;23.80;13.82;;;1.40;62.60;;;-0.10;58.96;98645.25;5104352;28;20420;-79
2021/03/08 02:48:46;;;;;;;22.70;14.43;;;1.30;63.40;;;-0.09;59.52;98649.47;5110150;28;20394;-79
2021/03/08 02:51:20;;;;;;;26.08;14.85;;;1.20;64.10;;;0.07;59.35;98645.34;5112617;28;20378;-80
2021/03/08 02:53:50;;;;;;;22.60;13.93;;;1.30;64.00;;;0.21;58.58;98650.00;5110161;28;20435;-79
2021/03/08 02:56:20;;;;;;;22.85;13.57;;;1.50;63.30;;;0.17;58.41;98651.25;5106040;28;20420;-81
2021/03/08 02:58:49;;;;;;;24.20;14.73;;;1.50;62.90;;;0.01;59.14;98638.94;5102261;28;20461;-79
2021/03/08 03:01:19;;;;;;;23.20;14.68;;;1.40;63.40;;;-0.01;59.26;98633.09;5100050;28;20509;-79
2021/03/08 03:03:49;;;;;;;25.23;14.65;;;1.30;63.60;;;0.05;59.08;98637.69;5099970;28;20756;-79
2021/03/08 03:06:18;;;;;;;22.08;14.20;;;1.40;63.50;;;0.16;58.65;98629.59;5101340;28;20406;-79
2021/03/08 03:08:46;;;;;;;23.08;14.27;;;1.50;63.50;;;0.35;58.35;98633.78;5120085;28;20410;-79
2021/03/08 03:11:13;;;;;;;24.15;15.55;;;1.60;63.40;;;0.33;58.47;98636.53;5104781;28;20442;-79
2021/03/08 03:13:43;;;;;;;23.77;14.25;;;1.60;63.10;;;0.13;58.83;98637.75;5104430;28;20398;-79
2021/03/08 03:16:12;;;;;;;25.07;15.40;;;1.60;63.50;;;-0.11;60.24;98641.00;5101286;28;20475;-79
2021/03/08 03:18:40;;;;;;;24.90;15.45;;;1.20;64.80;;;-0.24;60.85;98642.38;5102520;28;20422;-79
2021/03/08 03:21:08;;;;;;;29.27;15.60;;;1.10;65.40;;;-0.25;60.77;98649.38;5106805;28;20504;-78
2021/03/08 03:23:37;;;;;;;23.98;15.38;;;1.10;65.70;;;-0.04;60.60;98644.63;5109071;28;20410;-78
2021/03/08 03:26:07;;;;;;;24.15;15.07;;;1.20;65.50;;;0.04;60.12;98645.66;5111329;28;20488;-79
2021/03/08 03:28:34;;;;;;;26.67;15.60;;;1.40;65.10;;;0.18;59.45;98638.09;5110748;28;20424;-79
2021/03/08 03:31:01;;;;;;;23.33;15.17;;;1.50;64.50;;;0.29;58.95;98642.22;5109886;28;20414;-79
2021/03/08 03:33:28;;;;;;;26.20;15.02;;;1.60;63.80;;;0.08;59.35;98650.38;5106137;28;20394;-79
2021/03/08 03:35:56;;;;;;;23.10;15.32;;;1.50;63.90;;;-0.20;60.65;98662.72;5102074;28;20424;-79
2021/03/08 03:38:23;;;;;;;26.67;15.13;;;1.20;65.00;;;-0.24;60.72;98664.00;5101290;28;20700;-79
2021/03/08 03:40:50;;;;;;;22.85;15.18;;;1.10;65.60;;;-0.17;60.70;98662.44;5101518;28;20410;-79
2021/03/08 03:43:17;;;;;;;28.23;15.20;;;1.20;65.60;;;-0.26;61.12;98660.72;5100921;28;20414;-79
2021/03/08 03:45:44;;;;;;;24.27;14.40;;;1.10;65.70;;;-0.27;60.89;98660.88;5099531;28;20445;-79
2021/03/08 03:48:11;;;;;;;25.27;14.73;;;1.10;65.90;;;-0.19;60.63;98674.78;5098937;28;20402;-79
2021/03/08 03:50:38;;;;;;;24.33;15.90;;;1.20;65.70;;;-0.11;60.12;98676.63;5100329;28;20657;-79
2021/03/08 03:53:06;;;;;;;25.00;15.70;;;1.20;65.30;;;-0.03;59.93;98668.88;5118748;28;20410;-79
2021/03/08 03:55:32;;;;;;;25.42;14.60;;;1.30;64.80;;;0.08;59.68;98671.19;5099225;28;20414;-79
2021/03/08 03:58:06;;;;;;;24.05;14.43;;;1.40;64.60;;;0.13;59.59;98673.38;5099942;28;20696;-79
2021/03/08 04:00:44;;;;;;;27.35;14.90;;;1.50;64.40;;;0.25;59.25;98674.72;5102507;28;20426;-79
2021/03/08 04:03:11;;;;;;;26.10;15.82;;;1.50;64.10;;;0.12;59.22;98680.34;5104370;28;20432;-79
2021/03/08 04:05:41;;;;;;;26.17;14.53;;;1.40;63.90;;;0.05;59.56;98683.72;5116561;28;20704;-79
2021/03/08 04:08:15;;;;;;;24.85;13.48;;;1.40;64.20;;;-0.47;60.94;98691.47;5118273;28;20547;-78
2021/03/08 04:10:42;;;;;;;29.13;15.20;;;1.00;65.30;;;-0.59;61.88;98701.25;5108272;28;20417;-79
2021/03/08 04:13:13;;;;;;;22.48;14.45;;;0.80;66.70;;;-0.59;62.08;98693.44;5113234;28;20425;-80
2021/03/08 04:15:40;;;;;;;24.58;15.63;;;0.80;67.00;;;-0.43;61.40;98697.97;5104463;28;20459;-78
2021/03/08 04:18:12;;;;;;;26.42;16.15;;;0.90;66.80;;;-0.36;61.65;98693.00;5102960;28;20482;-77
2021/03/08 04:20:39;;;;;;;22.38;15.00;;;1.00;66.50;;;-0.23;61.14;98701.25;5102140;28;20409;-78
2021/03/08 04:23:10;;;;;;;23.23;15.35;;;1.10;66.50;;;-0.12;60.63;98709.63;5102937;28;20402;-78
2021/03/08 04:25:44;;;;;;;25.92;16.10;;;1.20;66.10;;;-0.32;61.63;98702.16;5102311;28;20455;-78
2021/03/08 04:28:12;;;;;;;26.25;15.80;;;1.00;66.50;;;-0.58;62.68;98710.69;5104006;28;20398;-78
2021/03/08 04:30:40;;;;;;;22.85;15.40;;;0.90;67.20;;;-0.46;62.31;98713.91;5104244;28;20409;-78
2021/03/08 04:33:06;;;;;;;28.03;16.43;;;0.90;67.50;;;-0.35;62.07;98713.66;5104082;28;20590;-78
2021/03/08 04:35:33;;;;;;;23.45;16.27;;;1.00;67.20;;;-0.26;62.02;98710.16;5102811;28;20426;-78
2021/03/08 04:38:00;;;;;;;26.53;15.90;;;1.10;67.10;;;-0.17;61.35;98714.47;5102053;28;20433;-80
2021/03/08 04:40:27;;;;;;;26.42;16.10;;;1.10;66.70;;;-0.11;61.14;98719.06;5102620;28;20397;-77
2021/03/08 04:42:55;;;;;;;30.45;16.80;;;1.20;66.50;;;-0.19;61.45;98720.78;5103328;28;20474;-79
2021/03/08 04:45:22;;;;;;;27.60;16.60;;;1.20;66.70;;;-0.53;62.42;98718.06;5101746;28;20618;-80
2021/03/08 04:47:51;;;;;;;26.80;15.95;;;0.90;67.40;;;-0.80;63.71;98724.09;5101422;28;20421;-84
2021/03/08 04:50:18;;;;;;;27.23;16.05;;;0.60;68.50;;;-0.87;64.04;98720.47;5103287;28;20398;-85
2021/03/08 04:52:47;;;;;;;29.67;17.63;;;0.60;69.30;;;-0.92;64.34;98720.91;5103473;28;20405;-80
2021/03/08 04:55:14;;;;;;;30.03;17.63;;;0.50;69.70;;;-0.83;64.31;98727.03;5100494;28;20530;-79
2021/03/08 04:57:43;;;;;;;26.42;17.38;;;0.50;69.70;;;-0.72;63.54;98728.56;5100419;28;20841;-80
2021/03/08 05:00:12;;;;;;;30.33;17.88;;;0.60;69.40;;;-0.62;63.60;98737.16;5100180;28;20402;-80
2021/03/08 05:02:41;;;;;;;27.40;17.02;;;0.70;69.00;;;-0.60;63.50;98733.41;5117698;28;20416;-80
2021/03/08 05:05:10;;;;;;;28.80;17.47;;;0.80;68.70;;;-0.61;63.37;98736.19;5101189;28;20684;-80
2021/03/08 05:07:40;;;;;;;32.63;17.52;;;0.70;68.70;;;-0.54;63.17;98737.22;5099401;28;20453;-80
2021/03/08 05:10:11;;;;;;;25.50;16.60;;;0.80;68.60;;;-0.64;63.72;98739.06;5099947;28;20636;-79
2021/03/08 05:12:41;;;;;;;26.95;16.67;;;0.70;69.00;;;-0.57;63.61;98737.50;5104190;28;20471;-80
2021/03/08 05:15:11;;;;;;;25.33;16.73;;;0.80;69.00;;;-0.70;63.80;98739.66;5110187;28;20517;-80
2021/03/08 05:17:39;;;;;;;29.40;17.52;;;0.70;69.10;;;-0.61;64.38;98736.19;5100356;28;20421;-79
2021/03/08 05:20:10;;;;;;;29.27;17.08;;;0.70;69.50;;;-0.71;64.25;98740.63;5099399;28;20398;-80
2021/03/08 05:22:39;;;;;;;27.45;17.83;;;0.70;69.40;;;-0.87;64.88;98742.06;5099552;28;20413;-80
2021/03/08 05:25:07;;;;;;;27.83;17.85;;;0.50;70.00;;;-0.95;65.23;98747.19;5100187;28;20757;-79
2021/03/08 05:27:35;;;;;;;28.67;17.95;;;0.50;70.50;;;-0.93;65.24;98749.63;5100386;28;20729;-79
2021/03/08 05:30:04;;;;;;;28.48;17.58;;;0.40;70.70;;;-1.02;65.67;98746.13;5100244;28;20409;-78
2021/03/08 05:32:34;;;;;;;26.48;16.70;;;0.40;70.80;;;-0.96;65.07;98740.34;5101575;28;20861;-79
2021/03/08 05:35:03;;;;;;;28.23;17.70;;;0.40;71.00;;;-0.90;65.10;98744.13;5099694;28;20673;-80
2021/03/08 05:37:30;;;;;;;28.73;18.48;;;0.50;70.80;;;-1.06;65.74;98749.16;5101876;28;20432;-79
2021/03/08 05:39:59;;;;;;;28.98;17.48;;;0.30;71.00;;;-1.04;65.62;98744.63;5117358;28;20493;-79
2021/03/08 05:42:33;;;;;;;31.07;19.33;;;0.30;71.30;;;-1.08;65.88;98743.28;5103134;28;20456;-79
2021/03/08 05:45:05;;;;;;;28.48;17.58;;;0.30;71.30;;;-1.16;66.44;98746.59;5099552;28;20401;-79
2021/03/08 05:47:59;;;;;;;28.92;18.83;;;0.20;71.60;;;-1.23;66.48;98748.97;5100006;28;20417;-80
2021/03/08 05:51:10;;;;;;;28.90;17.85;;;0.20;72.10;;;-1.39;66.93;98756.53;5098948;28;20784;-79
2021/03/08 05:54:02;;;;;;;27.58;17.98;;;0.10;72.30;;;-1.37;66.99;98757.22;5070741;28;20450;-79
2021/03/08 05:56:41;;;;;;;33.10;18.33;;;0.00;72.60;;;-1.50;67.23;98764.47;5114285;28;20406;-77
2021/03/08 05:59:48;;;;;;;31.10;17.95;;;-0.10;72.90;;;-1.47;67.75;98765.97;5097325;28;20406;-77
2021/03/08 06:02:46;;;;;;;30.63;18.63;;;-0.10;73.30;;;-1.47;67.58;98761.59;5101457;28;20565;-77
2021/03/08 06:05:51;;;;;;;40.15;18.65;;;-0.10;73.40;;;-1.51;67.91;98760.28;5097024;28;20601;-77
2021/03/08 06:08:45;;;;;;;34.40;18.73;;;-0.10;73.50;;;-1.43;67.80;98760.38;5113019;28;20402;-79
2021/03/08 06:11:14;;;;;;;36.17;19.20;;;0.00;73.50;;;-1.27;67.01;98762.34;5098549;28;20410;-77
2021/03/08 06:13:58;;;;;;;31.60;19.25;;;0.10;73.40;;;-1.12;66.60;98758.31;5098399;28;20405;-77
2021/03/08 06:16:32;;;;;;;33.30;19.40;;;0.20;72.70;;;-1.05;66.31;98756.78;5113732;28;20528;-77
2021/03/08 06:19:01;;;;;;;38.05;19.58;;;0.30;72.50;;;-1.01;66.56;98758.16;5097816;28;20455;-77
2021/03/08 06:21:27;;;;;;;36.55;18.73;;;0.30;72.20;;;-0.86;66.07;98748.91;5097760;28;20452;-77
2021/03/08 06:23:54;;;;;;;35.33;20.00;;;0.40;72.00;;;-0.83;65.44;98753.81;5114581;28;20418;-78
2021/03/08 06:26:21;;;;;;;30.10;18.50;;;0.50;71.50;;;-1.00;66.41;98766.78;5113494;28;20417;-77
2021/03/08 06:28:47;;;;;;;31.90;20.15;;;0.40;72.00;;;-0.99;66.36;98758.00;5097964;28;20398;-77
2021/03/08 06:31:14;;;;;;;30.20;18.90;;;0.40;72.40;;;-0.93;66.58;98762.63;5097683;28;20414;-79
2021/03/08 06:33:44;;;;;;;30.33;18.80;;;0.40;72.30;;;-0.95;66.69;98770.56;5098503;28;20402;-78
2021/03/08 06:36:12;;;;;;;33.22;18.75;;;0.40;72.10;;;-0.99;66.63;98766.63;5098253;28;20405;-79
2021/03/08 06:38:39;;;;;;;31.77;19.20;;;0.40;72.40;;;-0.92;66.57;98767.69;5096100;28;20418;-79
2021/03/08 06:41:07;;;;;;;35.55;20.20;;;0.40;72.40;;;-0.74;66.07;98774.69;5097455;28;20455;-78
2021/03/08 06:43:35;;;;;;;35.20;19.53;;;0.50;72.00;;;-0.63;65.01;98785.72;5097586;28;20509;-77
2021/03/08 06:46:03;;;;;;;33.03;18.13;;;0.70;71.40;;;-0.67;64.69;98786.97;5097528;28;20412;-78
2021/03/08 06:48:30;;;;;;;32.40;18.55;;;0.70;70.90;;;-0.65;65.13;98786.81;5114034;28;20433;-79
2021/03/08 06:51:12;;;;;;;35.65;20.27;;;0.70;71.10;;;-0.55;64.88;98785.00;5097782;28;20459;-78
2021/03/08 06:53:39;;;;;;;31.45;18.48;;;0.80;70.90;;;-0.42;64.40;98788.88;5112858;28;20410;-77
2021/03/08 06:56:13;;;;;;;33.40;19.10;;;0.80;70.60;;;-0.29;63.76;98790.28;5095708;28;20413;-78
2021/03/08 06:58:41;;;;;;;30.23;18.95;;;1.00;70.10;;;-0.15;63.93;98798.41;5096711;28;20526;-77
2021/03/08 07:01:29;;;;;;;35.03;18.75;;;1.10;69.60;;;0.00;63.38;98796.13;5076952;28;20801;-77
2021/03/08 07:03:57;;;;;;;43.93;24.57;;;1.30;69.20;;;0.10;63.30;98794.22;5086442;28;20420;-77
2021/03/08 07:06:24;;;;;;;30.05;19.60;;;1.40;68.90;;;0.16;62.88;98792.81;5073675;28;20490;-78
2021/03/08 07:08:51;;;;;;;28.40;18.03;;;1.40;68.40;;;0.23;62.06;98794.66;5075923;28;20426;-78
2021/03/08 07:11:22;;;;;;;32.63;18.35;;;1.50;68.00;;;0.30;61.82;98794.91;5077134;28;20422;-78
2021/03/08 07:13:49;;;;;;;29.40;19.00;;;1.60;67.70;;;0.39;61.47;98799.16;5075644;28;20418;-78
2021/03/08 07:16:15;;;;;;;31.02;18.58;;;1.70;67.40;;;0.61;61.19;98796.06;5075550;28;20526;-78
2021/03/08 07:18:43;;;;;;;31.43;18.10;;;1.80;67.00;;;0.66;60.67;98799.06;5077540;28;20672;-78
2021/03/08 07:21:18;;;;;;;34.40;18.70;;;1.90;66.50;;;0.60;61.23;98796.25;5079466;28;20424;-78
2021/03/08 07:23:47;;;;;;;28.95;19.05;;;2.00;66.40;;;0.33;62.16;98805.81;5076224;28;20701;-78
2021/03/08 07:26:16;;;;;;;35.50;18.52;;;1.70;67.70;;;0.15;62.91;98799.78;5074783;28;20721;-78
2021/03/08 07:28:44;;;;;;;30.83;19.70;;;1.50;68.40;;;0.11;62.75;98800.25;5076248;28;20412;-78
2021/03/08 07:31:36;;;;;;;30.33;18.95;;;1.40;68.60;;;0.12;62.80;98809.72;5075838;28;20734;-77
2021/03/08 07:34:08;;;;;;;42.33;19.88;;;1.40;68.70;;;0.24;63.12;98821.50;5075203;28;20883;-78
2021/03/08 07:36:36;;;;;;;34.72;20.17;;;1.50;68.80;;;0.43;62.10;98831.78;5076432;28;20411;-77
2021/03/08 07:39:17;;;;;;;29.40;18.63;;;1.70;68.20;;;0.58;61.50;98826.84;5091073;28;20420;-77
2021/03/08 07:42:04;;;;;;;31.45;17.45;;;1.80;67.20;;;0.51;61.82;98831.84;5081528;28;20682;-77
2021/03/08 07:44:31;;;;;;;27.48;15.88;;;1.90;66.90;;;-0.12;63.42;98834.53;5097029;28;20431;-78
2021/03/08 07:47:14;;;;;;;33.92;17.27;;;1.20;68.40;;;-0.24;64.00;98830.53;5081482;28;20685;-77
2021/03/08 07:49:41;;;;;;;34.55;18.95;;;1.00;69.70;;;-0.15;63.93;98831.44;5098915;28;20514;-78
2021/03/08 07:52:10;;;;;;;32.20;18.40;;;1.10;69.80;;;-0.10;64.04;98835.22;5085796;28;20402;-77
2021/03/08 07:55:01;;;;;;;35.67;17.83;;;1.20;70.00;;;-0.13;63.90;98834.69;5104125;28;20488;-77
2021/03/08 07:57:29;;;;;;;36.63;17.15;;;1.20;69.20;;;-0.38;64.74;98831.03;5087596;28;20839;-77
2021/03/08 07:59:56;;;;;;;32.05;18.85;;;0.90;70.40;;;-0.16;64.18;98835.00;5110504;28;20421;-78
2021/03/08 08:02:23;;;;;;;29.03;17.13;;;1.10;70.40;;;-0.15;63.72;98828.84;5104588;28;20426;-78
2021/03/08 08:04:50;;;;;;;32.58;19.27;;;1.10;70.40;;;0.02;63.65;98828.00;5120107;28;20456;-78
2021/03/08 08:07:21;;;;;;;38.33;19.65;;;1.20;69.50;;;0.12;63.16;98835.75;5104234;28;20490;-78
2021/03/08 08:09:49;;;;;;;30.20;16.95;;;1.30;69.10;;;-0.01;63.59;98831.75;5105510;28;20409;-78
2021/03/08 08:12:22;;;;;;;31.42;19.25;;;1.30;69.10;;;0.18;62.78;98838.56;5105632;28;20413;-78
2021/03/08 08:14:52;;;;;;;35.80;19.42;;;1.40;69.10;;;0.43;62.62;98841.38;5108292;28;20484;-78
2021/03/08 08:17:22;;;;;;;32.90;19.13;;;1.60;68.50;;;0.65;61.80;98841.72;5106499;28;20511;-77
2021/03/08 08:19:50;;;;;;;35.37;17.27;;;1.80;67.60;;;0.40;62.00;98837.28;5108609;28;20410;-77
2021/03/08 08:22:21;;;;;;;32.08;20.52;;;1.70;67.20;;;0.70;61.30;98843.84;5110656;28;20406;-77
2021/03/08 08:24:49;;;;;;;36.17;19.83;;;1.90;67.30;;;0.95;59.88;98842.22;5112313;28;20416;-78
2021/03/08 08:27:17;;;;;;;33.83;19.00;;;2.10;66.30;;;1.04;60.18;98843.91;5109547;28;20438;-77
2021/03/08 08:29:49;;;;;;;29.02;18.13;;;2.20;65.70;;;1.09;59.49;98850.28;5108393;28;20467;-76
2021/03/08 08:32:16;;;;;;;29.98;17.98;;;2.30;65.20;;;0.91;60.38;98846.91;5109962;28;20414;-78
2021/03/08 08:34:45;;;;;;;31.42;18.98;;;2.20;65.60;;;1.14;59.66;98841.97;5108238;28;20418;-77
2021/03/08 08:37:13;;;;;;;33.67;19.13;;;2.30;65.60;;;1.17;59.49;98839.06;5121710;28;20433;-77
2021/03/08 08:39:42;;;;;;;48.58;27.88;;;2.40;64.60;;;1.31;59.28;98843.69;5102226;28;20429;-77
2021/03/08 08:42:18;;;;;;;32.42;18.70;;;2.50;64.70;;;1.55;58.96;98838.59;5102540;28;20438;-77
2021/03/08 08:44:48;;;;;;;28.90;17.25;;;2.70;64.50;;;1.29;58.99;98840.44;5101380;28;20399;-77
2021/03/08 08:47:30;;;;;;;29.38;17.75;;;2.50;64.10;;;1.28;58.92;98838.00;5101257;28;20405;-77
2021/03/08 08:50:15;;;;;;;30.73;18.20;;;2.50;64.30;;;1.54;58.66;98838.75;5097950;28;20470;-77
2021/03/08 08:52:52;;;;;;;34.22;20.17;;;2.70;64.50;;;2.07;56.95;98841.00;5101193;28;20483;-79
2021/03/08 08:55:43;;;;;;;29.13;18.98;;;3.20;62.80;;;2.16;56.07;98834.81;5099016;28;20406;-79
2021/03/08 08:58:25;;;;;;;33.53;19.45;;;3.40;61.30;;;2.15;56.36;98841.00;5115049;28;20418;-79
2021/03/08 09:01:28;;;;;;;29.10;18.70;;;3.40;61.30;;;2.15;56.04;98837.56;5098706;28;20672;-80
2021/03/08 09:03:59;;;;;;;27.58;16.92;;;3.40;61.50;;;2.20;56.05;98832.66;5100570;28;20406;-77
2021/03/08 09:06:49;;;;;;;48.88;19.25;;;3.40;62.00;;;2.46;55.94;98838.56;5100638;28;20421;-79
2021/03/08 09:09:19;;;;;;;26.33;16.27;;;3.50;61.20;;;1.72;57.50;98839.47;5119619;28;20508;-78
2021/03/08 09:11:54;;;;;;;31.57;16.90;;;3.00;62.00;;;2.01;57.39;98838.22;5110467;28;20523;-78
2021/03/08 09:14:28;;;;;;;31.13;17.57;;;3.10;62.70;;;2.31;56.39;98838.41;5104739;28;20406;-79
2021/03/08 09:17:19;;;;;;;25.45;15.77;;;3.40;62.00;;;2.46;55.77;98835.13;5101850;28;20421;-79
2021/03/08 09:19:49;;;;;;;32.27;19.00;;;3.60;60.70;;;2.42;55.62;98837.25;5100902;28;20455;-78
2021/03/08 09:22:51;;;;;;;26.43;16.27;;;3.60;60.60;;;2.14;57.03;98836.75;5100105;28;20446;-79
2021/03/08 09:25:25;;;;;;;27.83;17.48;;;3.40;61.70;;;2.35;56.62;98841.50;5100625;28;20648;-80
2021/03/08 09:28:12;;;;;;;33.60;19.05;;;3.50;61.60;;;2.55;56.12;98837.59;5098690;28;20406;-79
2021/03/08 09:30:43;;;;;;;28.35;16.95;;;3.70;61.50;;;2.67;55.23;98836.25;5099439;28;20852;-79
2021/03/08 09:33:11;;;;;;;31.60;15.70;;;3.70;60.50;;;2.92;54.49;98836.22;5101111;28;20872;-80
2021/03/08 09:35:41;;;;;;;25.75;16.13;;;4.00;60.00;;;3.06;54.09;98840.78;5083818;28;20420;-79
2021/03/08 09:38:11;;;;;;;25.98;16.02;;;4.20;59.50;;;3.23;53.61;98831.09;5080021;28;20431;-80
2021/03/08 09:40:41;;;;;;;26.83;16.20;;;4.30;58.90;;;3.26;53.29;98836.78;5090399;28;20438;-79
2021/03/08 09:43:22;;;;;;;28.05;16.08;;;4.40;58.50;;;3.22;53.15;98834.69;5099945;28;20402;-79
2021/03/08 09:46:00;;;;;;;22.52;16.00;;;4.40;58.10;;;3.29;53.12;98835.63;5098959;28;20516;-80
2021/03/08 09:48:28;;;;;;;24.85;15.68;;;4.40;58.20;;;3.09;52.97;98841.25;5099640;28;20398;-79
2021/03/08 09:51:03;;;;;;;48.95;18.05;;;4.30;57.70;;;3.22;53.19;98826.84;5101696;28;20473;-79
2021/03/08 09:53:36;;;;;;;24.15;15.95;;;4.30;58.10;;;3.32;52.67;98830.03;5098727;28;20413;-79
2021/03/08 09:56:08;;;;;;;22.33;15.50;;;4.30;58.70;;;3.34;52.23;98830.69;5100661;28;20410;-79
2021/03/08 09:58:35;;;;;;;26.70;15.95;;;4.50;57.50;;;3.58;51.91;98822.75;5100550;28;20414;-79
2021/03/08 10:01:17;;;;;;;26.75;16.38;;;4.60;57.50;;;3.67;51.70;98826.16;5100031;28;20410;-79
2021/03/08 10:03:44;;;;;;;26.00;15.88;;;4.70;56.90;;;3.68;51.45;98830.41;5098654;28;20413;-79
2021/03/08 10:06:25;;;;;;;28.50;16.17;;;4.80;56.70;;;3.72;51.31;98829.88;5099876;28;20808;-79
2021/03/08 10:08:52;;;;;;;25.27;15.68;;;4.80;56.30;;;3.76;50.92;98827.75;5103411;28;20421;-79
2021/03/08 10:11:24;;;;;;;24.92;15.45;;;4.80;56.00;;;3.91;50.90;98825.97;5117151;28;20432;-80
2021/03/08 10:13:51;;;;;;;21.77;15.15;;;4.90;56.10;;;4.11;49.98;98831.59;5104230;28;20394;-79
2021/03/08 10:16:28;;;;;;;24.88;14.50;;;5.10;55.50;;;4.23;49.19;98830.19;5110445;28;20765;-79
2021/03/08 10:18:55;;;;;;;23.07;13.37;;;5.30;54.70;;;4.24;48.03;98824.78;5110692;28;20553;-79
2021/03/08 10:21:23;;;;;;;21.92;12.93;;;5.40;53.70;;;4.16;48.19;98818.78;5109189;28;20836;-79
2021/03/08 10:23:52;;;;;;;24.08;13.25;;;5.30;53.40;;;4.07;48.81;98822.44;5100994;28;20408;-79
2021/03/08 10:26:20;;;;;;;19.90;12.93;;;5.20;53.80;;;4.33;48.21;98822.09;5098953;28;20441;-79
2021/03/08 10:28:50;;;;;;;23.38;12.90;;;5.30;53.90;;;4.13;48.42;98821.78;5111662;28;20441;-79
2021/03/08 10:31:20;;;;;;;20.97;13.10;;;5.20;53.50;;;4.39;48.20;98826.66;5096065;28;20416;-79
2021/03/08 10:33:57;;;;;;;22.77;13.10;;;5.40;53.80;;;4.61;47.23;98826.63;5095732;28;20442;-79
2021/03/08 10:36:30;;;;;;;19.13;13.48;;;5.60;53.00;;;4.91;47.03;98826.66;5097642;28;20619;-79